createdAt,value
2022-09-12T03:46:06.606Z,100221.56
2022-09-12T03:49:10.748Z,100221.56
2022-09-12T03:52:13.153Z,100213.37
2022-09-12T03:55:16.405Z,100227.41
2022-09-12T03:58:18.797Z,100227.50
2022-09-12T04:01:21.909Z,100224.94
2022-09-12T04:04:24.617Z,100230.81
2022-09-12T04:07:27.519Z,100236.59
2022-09-12T04:10:32.282Z,100226.91
2022-09-12T04:13:35.746Z,100218.97
2022-09-12T04:16:38.616Z,100226.91
2022-09-12T04:19:41.034Z,100233.22
2022-09-12T04:22:43.563Z,100222.34
2022-09-12T04:25:54.519Z,100222.34
2022-09-12T04:28:57.642Z,100228.69
2022-09-12T04:31:59.943Z,100230.56
2022-09-12T04:35:02.791Z,100224.25
2022-09-12T04:38:05.086Z,100221.28
2022-09-12T04:41:16.854Z,100227.94
2022-09-12T04:44:19.161Z,100225.91
2022-09-12T04:47:22.827Z,100224.34
2022-09-12T04:50:25.634Z,100230.97
2022-09-12T04:53:28.246Z,100233.81
2022-09-12T04:56:31.226Z,100239.66
2022-09-12T04:59:33.930Z,100242.06
2022-09-12T05:02:36.245Z,100242.72
2022-09-12T05:05:38.934Z,100246.59
2022-09-12T05:08:41.279Z,100253.91
2022-09-12T05:12:04.141Z,100248.53
2022-09-12T05:15:07.856Z,100252.97
2022-09-12T05:18:10.358Z,100252.53
2022-09-12T05:21:15.238Z,100249.88
2022-09-12T05:24:17.954Z,100264.13
2022-09-12T05:27:20.252Z,100262.19
2022-09-12T05:30:22.948Z,100266.81
2022-09-12T05:33:25.315Z,100267.87
2022-09-12T05:36:29.713Z,100265.19
2022-09-12T05:39:32.161Z,100269.91
2022-09-12T05:42:35.007Z,100274.19
2022-09-12T05:45:37.500Z,100274.28
2022-09-12T05:48:42.921Z,100275.06
2022-09-12T05:51:45.914Z,100277.59
2022-09-12T05:54:48.729Z,100279.81
2022-09-12T05:57:51.588Z,100281.37
2022-09-12T06:00:54.130Z,100271.28
2022-09-12T06:04:00.752Z,100284.78
2022-09-12T06:07:03.101Z,100288.41
2022-09-12T06:10:06.148Z,100279.12
2022-09-12T06:13:08.645Z,100291.22
2022-09-12T06:16:14.266Z,100284.59
2022-09-12T06:19:19.379Z,100301.09
2022-09-12T06:22:22.050Z,100283.78
2022-09-12T06:25:24.397Z,100291.97
2022-09-12T06:28:27.659Z,100301.94
2022-09-12T06:31:33.120Z,100304.09
2022-09-12T06:34:36.449Z,100296.44
2022-09-12T06:37:38.817Z,100302.50
2022-09-12T06:40:46.294Z,100299.25
2022-09-12T06:43:48.533Z,100305.16
2022-09-12T06:46:51.710Z,100305.16
2022-09-12T06:49:54.076Z,100300.69
2022-09-12T06:52:56.752Z,100305.03
2022-09-12T06:56:01.746Z,100307.94
2022-09-12T06:59:05.279Z,100306.84
2022-09-12T07:02:09.658Z,100298.66
2022-09-12T07:05:15.707Z,100306.13
2022-09-12T07:08:18.057Z,100300.31
2022-09-12T07:11:23.784Z,100303.44
2022-09-12T07:14:26.161Z,100292.81
2022-09-12T07:17:29.003Z,100302.75
2022-09-12T07:20:33.062Z,100304.97
2022-09-12T07:23:35.804Z,100303.06
2022-09-12T07:26:40.209Z,100307.16
2022-09-12T07:29:44.241Z,100311.84
2022-09-12T07:32:46.611Z,100314.56
2022-09-12T07:35:49.636Z,100322.66
2022-09-12T07:38:58.459Z,100316.06
2022-09-12T07:42:01.014Z,100326.84
2022-09-12T07:45:03.892Z,100329.75
2022-09-12T07:48:06.474Z,100326.53
2022-09-12T07:51:10.843Z,100327.94
2022-09-12T07:54:13.594Z,100320.69
2022-09-12T07:57:15.990Z,100329.69
2022-09-12T08:00:19.001Z,100323.62
2022-09-12T08:03:21.516Z,100318.97
2022-09-12T08:06:25.199Z,100314.97
2022-09-12T08:09:27.917Z,100315.50
2022-09-12T08:12:32.206Z,100318.59
2022-09-12T08:15:35.113Z,100318.72
2022-09-12T08:18:37.839Z,100319.59
2022-09-12T08:21:40.501Z,100323.38
2022-09-12T08:24:43.771Z,100314.00
2022-09-12T08:27:46.954Z,100326.44
2022-09-12T08:30:49.983Z,100326.88
2022-09-12T08:33:54.885Z,100320.88
2022-09-12T08:36:57.630Z,100318.22
2022-09-12T08:40:00.279Z,100316.56
2022-09-12T08:43:19.415Z,100320.22
2022-09-12T08:46:27.560Z,100322.59
2022-09-12T08:49:52.749Z,100316.56
2022-09-12T08:53:10.243Z,100323.31
2022-09-12T08:56:13.026Z,100312.94
2022-09-12T08:59:15.808Z,100315.94
2022-09-12T09:02:54.815Z,100306.09
2022-09-12T09:06:30.424Z,100319.63
2022-09-12T09:10:09.209Z,100311.31
2022-09-12T09:14:03.141Z,100316.19
2022-09-12T09:17:15.777Z,100309.59
2022-09-12T09:20:31.247Z,100305.94
2022-09-12T09:23:42.309Z,100308.75
2022-09-12T09:26:49.350Z,100316.28
2022-09-12T09:29:55.107Z,100307.34
2022-09-12T09:33:01.474Z,100301.09
2022-09-12T09:36:25.129Z,100301.53
2022-09-12T09:39:51.064Z,100307.16
2022-09-12T09:43:03.249Z,100310.94
2022-09-12T09:46:07.047Z,100309.31
2022-09-12T09:49:14.447Z,100306.28
2022-09-12T09:52:25.026Z,100311.87
2022-09-12T09:55:34.711Z,100305.94
2022-09-12T09:58:37.850Z,100309.59
2022-09-12T10:01:57.480Z,100307.28
2022-09-12T10:05:00.080Z,100302.53
2022-09-12T10:08:04.804Z,100296.72
2022-09-12T10:11:19.347Z,100299.91
2022-09-12T10:14:40.844Z,100303.53
2022-09-12T10:17:46.432Z,100307.56
2022-09-12T10:20:48.962Z,100309.03
2022-09-12T10:24:00.132Z,100306.69
2022-09-12T10:27:16.360Z,100310.06
2022-09-12T10:30:21.565Z,100320.78
2022-09-12T10:33:26.188Z,100312.78
2022-09-12T10:36:37.534Z,100316.75
2022-09-12T10:39:40.085Z,100307.66
2022-09-12T10:42:50.169Z,100300.06
2022-09-12T10:45:57.540Z,100295.88
2022-09-12T10:49:23.366Z,100293.16
2022-09-12T10:52:27.310Z,100290.63
2022-09-12T10:55:34.919Z,100283.66
2022-09-12T10:59:16.750Z,100293.19
2022-09-12T11:02:31.110Z,100287.41
2022-09-12T11:06:03.223Z,100288.56
2022-09-12T11:09:19.174Z,100297.50
2022-09-12T11:12:32.453Z,100293.59
2022-09-12T11:15:58.767Z,100301.81
2022-09-12T11:19:26.055Z,100291.84
2022-09-12T11:23:11.979Z,100298.69
2022-09-12T11:26:38.754Z,100296.16
2022-09-12T11:30:06.837Z,100292.47
2022-09-12T11:34:06.866Z,100289.94
2022-09-12T11:37:29.104Z,100299.34
2022-09-12T11:40:55.993Z,100291.22
2022-09-12T11:44:14.284Z,100294.13
2022-09-12T11:47:18.599Z,100296.66
2022-09-12T11:50:29.741Z,100291.19
2022-09-12T11:53:38.788Z,100286.56
2022-09-12T11:56:45.944Z,100287.13
2022-09-12T12:00:00.189Z,100273.22
2022-09-12T12:03:12.318Z,100279.94
2022-09-12T12:06:21.291Z,100275.91
2022-09-12T12:09:24.345Z,100284.19
2022-09-12T12:12:29.065Z,100288.69
2022-09-12T12:15:31.901Z,100285.41
2022-09-12T12:18:38.056Z,100257.94
2022-09-12T12:21:48.195Z,100259.94
2022-09-12T12:25:08.676Z,100260.28
2022-09-12T12:28:11.148Z,100247.09
2022-09-12T12:31:13.894Z,100247.19
2022-09-12T12:34:26.880Z,100255.06
2022-09-12T12:37:29.877Z,100243.78
2022-09-12T12:40:32.792Z,100244.44
2022-09-12T12:43:35.316Z,100242.94
2022-09-12T12:46:38.529Z,100250.94
2022-09-12T12:49:41.774Z,100255.25
2022-09-12T12:52:54.183Z,100258.81
2022-09-12T12:55:57.588Z,100246.59
2022-09-12T12:59:02.792Z,100240.81
2022-09-12T13:02:05.587Z,100246.12
2022-09-12T13:05:30.673Z,100241.63
2022-09-12T13:08:38.742Z,100241.66
2022-09-12T13:11:41.561Z,100240.59
2022-09-12T13:14:46.968Z,100253.94
2022-09-12T13:17:49.350Z,100244.25
2022-09-12T13:21:11.156Z,100242.84
2022-09-12T13:24:16.136Z,100234.44
2022-09-12T13:27:23.825Z,100235.34
2022-09-12T13:30:28.561Z,100234.34
2022-09-12T13:33:35.909Z,100224.78
2022-09-12T13:36:53.403Z,100228.16
2022-09-12T13:40:17.846Z,100230.34
2022-09-12T13:43:31.543Z,100225.47
2022-09-12T13:46:34.439Z,100227.75
2022-09-12T13:49:40.126Z,100224.16
2022-09-12T13:52:48.814Z,100222.81
2022-09-12T13:55:55.796Z,100206.03
2022-09-12T13:59:00.937Z,100207.44
2022-09-12T14:02:20.235Z,100213.84
2022-09-12T14:05:25.982Z,100213.50
2022-09-12T14:08:28.303Z,100219.75
2022-09-12T14:11:33.850Z,100222.16
2022-09-12T14:14:43.801Z,100220.09
2022-09-12T14:17:52.132Z,100220.84
2022-09-12T14:20:57.342Z,100222.72
2022-09-12T14:24:00.788Z,100214.06
2022-09-12T14:27:04.618Z,100215.25
2022-09-12T14:30:20.263Z,100210.91
2022-09-12T14:33:22.680Z,100205.09
2022-09-12T14:36:30.763Z,100210.66
2022-09-12T14:39:45.494Z,100206.94
2022-09-12T14:42:50.198Z,100203.37
2022-09-12T14:45:56.132Z,100220.84
2022-09-12T14:49:07.960Z,100211.38
2022-09-12T14:52:33.044Z,100204.28
2022-09-12T14:55:44.562Z,100207.69
2022-09-12T14:58:46.866Z,100207.41
2022-09-12T15:01:49.547Z,100201.97
2022-09-12T15:04:53.421Z,100207.47
2022-09-12T15:08:01.383Z,100202.81
2022-09-12T15:11:06.956Z,100198.78
2022-09-12T15:14:13.708Z,100196.87
2022-09-12T15:17:16.020Z,100197.09
2022-09-12T15:20:18.698Z,100201.12
2022-09-12T15:23:33.083Z,100207.63
2022-09-12T15:26:35.784Z,100185.06
2022-09-12T15:29:38.993Z,100196.09
2022-09-12T15:32:43.782Z,100186.03
2022-09-12T15:35:46.670Z,100182.97
2022-09-12T15:38:49.961Z,100191.56
2022-09-12T15:41:52.532Z,100193.09
